Time;durP1;ratioP1;P1;durP2;ratioP2;P2;SDS_P1;SDS_P2;PMS_P1;PMS_P2;Temp;Humidity;BMP_temperature;BMP_pressure;BME280_temperature;BME280_humidity;BME280_pressure;Samples;Min_cycle;Max_cycle;Signal;HPM_P1;HPM_P2
2024/02/12 00:01:38;;;;;;;30.75;14.18;;;;;;;5.18;61.43;99539.31;4949001;28;20058;-73
2024/02/12 00:04:07;;;;;;;30.17;15.50;;;;;;;5.18;62.02;99544.50;4953120;28;20034;-72
2024/02/12 00:06:34;;;;;;;30.08;15.68;;;;;;;5.18;61.98;99546.25;4933874;28;20046;-73
2024/02/12 00:09:00;;;;;;;28.83;14.80;;;;;;;5.18;61.49;99544.50;4934627;28;20030;-72
2024/02/12 00:11:25;;;;;;;30.08;14.32;;;;;;;5.15;61.60;99555.00;4928934;28;20732;-73
2024/02/12 00:13:56;;;;;;;28.83;14.10;;;;;;;5.09;61.70;99551.78;4957637;28;20057;-73
2024/02/12 00:16:26;;;;;;;33.88;15.43;;;;;;;5.11;61.58;99552.56;4946774;28;20049;-72
2024/02/12 00:18:51;;;;;;;28.05;13.50;;;;;;;5.08;61.54;99552.69;4945314;28;20316;-73
2024/02/12 00:21:18;;;;;;;24.90;13.70;;;;;;;5.07;61.51;99556.19;4902527;28;20043;-72
2024/02/12 00:23:49;;;;;;;28.58;13.32;;;;;;;4.99;61.59;99553.91;4948569;28;20515;-72
2024/02/12 00:26:15;;;;;;;28.98;13.57;;;;;;;4.88;61.39;99550.84;4942026;28;20495;-72
2024/02/12 00:28:42;;;;;;;28.55;14.93;;;;;;;4.79;61.29;99550.28;4962254;28;20026;-72
2024/02/12 00:31:12;;;;;;;23.17;11.43;;;;;;;4.74;60.95;99554.75;4958407;28;20492;-72
2024/02/12 00:33:38;;;;;;;26.20;13.43;;;;;;;4.62;60.84;99555.22;4940393;28;20085;-72
2024/02/12 00:36:06;;;;;;;27.65;15.05;;;;;;;4.57;60.92;99567.47;4926649;28;20054;-70
2024/02/12 00:38:32;;;;;;;31.98;14.95;;;;;;;4.49;61.01;99564.31;4941693;28;20852;-70
2024/02/12 00:40:58;;;;;;;29.08;14.38;;;;;;;4.46;61.26;99560.09;4945844;28;20142;-70
2024/02/12 00:43:23;;;;;;;29.25;13.07;;;;;;;4.42;61.28;99569.69;4923595;28;20620;-71
2024/02/12 00:45:48;;;;;;;28.38;14.10;;;;;;;4.35;61.36;99568.22;4942682;28;20504;-70
2024/02/12 00:48:16;;;;;;;30.60;14.57;;;;;;;4.32;61.48;99570.06;4955218;28;20574;-70
2024/02/12 00:50:44;;;;;;;30.15;14.95;;;;;;;4.32;61.58;99573.53;4961068;28;20265;-71
2024/02/12 00:53:11;;;;;;;32.38;13.63;;;;;;;4.37;61.47;99571.63;4943474;28;20026;-71
2024/02/12 00:55:40;;;;;;;27.45;13.25;;;;;;;4.46;61.95;99574.78;4936798;28;20473;-70
2024/02/12 00:58:09;;;;;;;32.22;14.07;;;;;;;4.45;62.02;99576.50;4924658;28;20281;-73
2024/02/12 01:00:39;;;;;;;44.63;16.33;;;;;;;4.51;62.34;99578.88;4877010;28;20357;-72
2024/02/12 01:03:05;;;;;;;35.45;15.50;;;;;;;4.59;62.34;99581.22;4887785;28;20543;-70
2024/02/12 01:05:41;;;;;;;34.10;16.02;;;;;;;4.66;62.22;99587.84;4904019;28;20930;-71
2024/02/12 01:08:10;;;;;;;27.95;13.23;;;;;;;4.70;62.24;99586.84;4909614;28;20754;-70
2024/02/12 01:10:39;;;;;;;38.05;15.98;;;;;;;4.60;62.19;99588.06;4886688;28;20722;-71
2024/02/12 01:13:04;;;;;;;35.78;13.45;;;;;;;4.59;62.62;99586.41;4916772;28;20046;-71
2024/02/12 01:15:31;;;;;;;33.67;14.23;;;;;;;4.60;62.36;99583.72;4916931;28;20084;-70
2024/02/12 01:17:57;;;;;;;33.22;15.50;;;;;;;4.65;61.94;99593.91;4910267;28;20050;-69
2024/02/12 01:20:25;;;;;;;34.03;14.27;;;;;;;4.56;61.54;99582.16;4947127;28;20459;-69
2024/02/12 01:22:51;;;;;;;37.33;15.30;;;;;;;4.30;62.03;99580.50;4951591;28;20129;-70
2024/02/12 01:25:18;;;;;;;37.58;17.08;;;;;;;4.33;62.20;99585.53;4934524;28;20038;-69
2024/02/12 01:27:44;;;;;;;31.23;15.52;;;;;;;4.33;61.98;99585.53;4952883;28;20144;-70
2024/02/12 01:30:13;;;;;;;33.72;15.45;;;;;;;4.36;62.10;99585.47;4939841;28;21364;-69
2024/02/12 01:32:39;;;;;;;40.50;16.38;;;;;;;4.33;63.12;99595.91;4936286;28;20918;-70
2024/02/12 01:35:05;;;;;;;35.92;15.25;;;;;;;4.43;62.98;99597.28;4939597;28;20473;-69
2024/02/12 01:37:32;;;;;;;41.05;17.15;;;;;;;4.60;62.43;99601.00;4950849;28;20121;-70
2024/02/12 01:39:59;;;;;;;34.03;15.35;;;;;;;4.69;62.29;99603.25;4931298;28;20041;-70
2024/02/12 01:42:29;;;;;;;39.33;16.45;;;;;;;4.63;62.04;99598.28;4936002;28;20034;-69
2024/02/12 01:45:00;;;;;;;35.55;14.90;;;;;;;4.64;62.25;99606.00;4942036;28;20041;-69
2024/02/12 01:47:28;;;;;;;35.35;15.13;;;;;;;4.61;62.37;99602.72;4935728;28;20047;-70
2024/02/12 01:49:57;;;;;;;32.03;14.13;;;;;;;4.63;62.32;99598.28;4960878;28;20034;-70
2024/02/12 01:52:26;;;;;;;32.97;14.85;;;;;;;4.60;62.35;99604.44;4947792;28;20223;-69
2024/02/12 01:54:55;;;;;;;32.08;13.55;;;;;;;4.63;61.93;99604.34;4959432;28;20038;-69
2024/02/12 01:57:24;;;;;;;43.22;18.42;;;;;;;4.49;62.36;99610.88;4937962;28;20064;-70
2024/02/12 01:59:50;;;;;;;40.00;17.00;;;;;;;4.59;62.57;99613.09;4943274;28;20058;-69
2024/02/12 02:02:18;;;;;;;42.58;17.13;;;;;;;4.60;62.12;99611.34;4939128;28;20111;-69
2024/02/12 02:04:48;;;;;;;50.35;17.92;;;;;;;4.29;63.17;99615.00;4955757;28;20041;-71
2024/02/12 02:07:20;;;;;;;36.85;17.05;;;;;;;4.28;63.41;99617.66;4942234;28;20608;-72
2024/02/12 02:09:51;;;;;;;41.78;17.65;;;;;;;4.33;63.42;99615.75;4949829;28;20284;-71
2024/02/12 02:12:19;;;;;;;37.05;16.67;;;;;;;4.45;62.56;99615.31;4943797;28;20578;-74
2024/02/12 02:14:45;;;;;;;42.85;18.70;;;;;;;4.50;62.84;99617.75;4950864;28;20313;-73
2024/02/12 02:17:13;;;;;;;39.70;17.67;;;;;;;4.53;63.02;99622.81;4961185;28;20038;-72
2024/02/12 02:19:39;;;;;;;46.17;18.73;;;;;;;4.62;62.65;99622.50;4909284;28;20033;-73
2024/02/12 02:22:06;;;;;;;33.30;16.00;;;;;;;4.61;62.64;99621.66;4934487;28;20038;-73
2024/02/12 02:24:32;;;;;;;36.20;16.35;;;;;;;4.64;62.40;99625.88;4930429;28;20133;-73
2024/02/12 02:27:03;;;;;;;45.67;18.77;;;;;;;4.20;63.62;99630.84;4914524;28;20356;-72
2024/02/12 02:29:33;;;;;;;48.63;16.30;;;;;;;4.43;62.91;99627.47;4900334;28;20112;-73
2024/02/12 02:32:03;;;;;;;39.33;16.88;;;;;;;4.43;62.90;99628.31;4896265;28;20586;-73
2024/02/12 02:34:35;;;;;;;43.05;16.55;;;;;;;4.38;62.98;99621.59;4903285;28;20644;-73
2024/02/12 02:37:03;;;;;;;48.50;16.33;;;;;;;4.32;63.22;99627.84;4929108;28;20163;-73
2024/02/12 02:39:30;;;;;;;51.60;15.82;;;;;;;4.27;63.45;99631.47;4911305;28;20037;-73
2024/02/12 02:41:57;;;;;;;34.35;15.70;;;;;;;4.22;63.34;99631.63;4938228;28;20580;-72
2024/02/12 02:44:25;;;;;;;34.05;15.77;;;;;;;4.31;62.69;99633.91;4957886;28;20558;-76
2024/02/12 02:46:54;;;;;;;47.75;15.85;;;;;;;4.32;62.94;99635.59;4961230;28;20088;-75
2024/02/12 02:49:20;;;;;;;38.50;16.00;;;;;;;4.14;63.85;99636.19;4963933;28;20038;-75
2024/02/12 02:51:45;;;;;;;42.22;15.05;;;;;;;4.19;63.39;99642.09;4922582;28;20120;-77
2024/02/12 02:54:12;;;;;;;44.20;16.77;;;;;;;4.12;63.31;99646.63;4942757;28;20030;-77
2024/02/12 02:56:37;;;;;;;38.55;15.77;;;;;;;4.28;63.08;99651.28;4928475;28;21358;-76
2024/02/12 02:59:08;;;;;;;36.60;14.88;;;;;;;4.27;63.31;99650.41;4926894;28;20037;-76
2024/02/12 03:01:33;;;;;;;37.65;15.43;;;;;;;4.39;63.10;99655.19;4931677;28;20129;-74
2024/02/12 03:03:59;;;;;;;39.38;15.80;;;;;;;4.48;62.67;99658.38;4964310;28;20036;-74
2024/02/12 03:06:26;;;;;;;35.88;14.45;;;;;;;4.35;62.80;99658.78;4945073;28;20070;-75
2024/02/12 03:08:54;;;;;;;34.47;14.52;;;;;;;4.28;62.69;99659.03;4937869;28;20042;-77
2024/02/12 03:11:26;;;;;;;37.10;14.07;;;;;;;4.45;62.79;99661.88;4965208;28;20042;-75
2024/02/12 03:13:55;;;;;;;39.28;14.52;;;;;;;4.41;62.46;99663.75;4954795;28;20387;-75
2024/02/12 03:16:26;;;;;;;32.25;12.93;;;;;;;4.38;62.72;99661.25;4947341;28;20041;-77
2024/02/12 03:18:55;;;;;;;33.45;11.85;;;;;;;4.23;63.15;99661.78;4947070;28;20819;-72
2024/02/12 03:21:22;;;;;;;30.27;12.15;;;;;;;4.19;63.21;99667.94;4958508;28;20038;-71
2024/02/12 03:23:49;;;;;;;27.90;11.63;;;;;;;4.16;63.13;99668.03;4952767;28;21144;-71
2024/02/12 03:26:17;;;;;;;22.38;9.77;;;;;;;4.22;62.87;99662.66;4951515;28;20042;-71
2024/02/12 03:28:43;;;;;;;31.73;11.68;;;;;;;4.25;62.41;99672.06;4949763;28;20038;-71
2024/02/12 03:31:09;;;;;;;25.77;10.32;;;;;;;4.10;62.20;99681.19;4938886;28;20049;-72
2024/02/12 03:33:36;;;;;;;24.90;10.82;;;;;;;4.01;62.38;99680.56;4931492;28;20064;-71
2024/02/12 03:36:05;;;;;;;26.77;11.02;;;;;;;3.94;63.15;99673.91;4958353;28;20047;-71
2024/02/12 03:38:37;;;;;;;23.30;9.05;;;;;;;3.73;63.75;99682.31;4959750;28;20034;-71
2024/02/12 03:41:05;;;;;;;28.85;9.32;;;;;;;4.04;63.00;99695.13;4962157;28;20054;-72
2024/02/12 03:43:31;;;;;;;23.30;9.93;;;;;;;4.13;62.76;99696.59;4920271;28;20042;-72
2024/02/12 03:46:00;;;;;;;24.83;8.35;;;;;;;4.15;62.88;99700.81;4881585;28;20172;-71
2024/02/12 03:59:53;;;;;;;32.45;11.73;;;;;;;4.30;62.61;99709.00;4941999;28;20045;-69
2024/02/12 04:02:21;;;;;;;24.60;9.88;;;;;;;4.26;62.77;99717.75;4931640;28;20049;-68
2024/02/12 04:04:50;;;;;;;26.80;10.38;;;;;;;4.25;62.81;99714.28;4949500;28;20481;-68
2024/02/12 04:07:16;;;;;;;29.70;10.20;;;;;;;4.38;62.27;99713.00;4956165;28;20042;-69
2024/02/12 04:09:42;;;;;;;28.30;9.15;;;;;;;4.41;62.13;99717.25;4948695;28;20037;-69
2024/02/12 04:12:12;;;;;;;24.08;10.18;;;;;;;4.38;62.03;99725.94;4921149;28;20038;-71
2024/02/12 04:14:42;;;;;;;30.38;10.15;;;;;;;4.43;61.94;99730.94;4940034;28;20061;-70
2024/02/12 04:17:15;;;;;;;22.92;9.73;;;;;;;4.26;62.29;99734.09;4955146;28;20039;-72
2024/02/12 04:19:44;;;;;;;20.67;10.02;;;;;;;4.12;62.84;99731.09;4943561;28;20033;-70
2024/02/12 04:22:14;;;;;;;25.00;11.60;;;;;;;4.34;62.43;99737.28;4944541;28;20031;-69
2024/02/12 04:24:44;;;;;;;29.77;11.10;;;;;;;4.35;62.17;99743.31;4937902;28;20106;-70
2024/02/12 04:27:15;;;;;;;27.67;10.00;;;;;;;4.26;62.30;99734.09;4949031;28;20385;-69
2024/02/12 04:29:43;;;;;;;24.63;9.00;;;;;;;4.31;62.16;99742.53;4956184;28;20061;-70
2024/02/12 04:32:11;;;;;;;26.10;10.35;;;;;;;4.26;61.86;99735.84;4943801;28;20057;-70
2024/02/12 04:34:38;;;;;;;25.63;9.18;;;;;;;4.33;62.09;99729.56;4955642;28;20475;-69
2024/02/12 04:37:06;;;;;;;24.48;10.68;;;;;;;4.17;62.17;99740.41;4936214;28;21112;-69
2024/02/12 04:39:32;;;;;;;28.38;10.93;;;;;;;4.10;62.55;99744.09;4943643;28;20176;-69
2024/02/12 04:42:00;;;;;;;30.23;11.25;;;;;;;4.17;62.24;99749.91;4958332;28;20042;-78
2024/02/12 04:44:29;;;;;;;27.33;11.52;;;;;;;4.17;62.48;99744.75;4950343;28;20591;-76
2024/02/12 04:46:58;;;;;;;25.92;10.68;;;;;;;4.26;62.32;99753.94;4952618;28;20038;-77
2024/02/12 04:49:27;;;;;;;26.38;10.88;;;;;;;4.08;62.10;99755.38;4965474;28;20090;-78
2024/02/12 04:51:53;;;;;;;26.27;11.35;;;;;;;3.85;63.51;99749.16;4938790;28;20042;-74
2024/02/12 04:54:18;;;;;;;29.08;12.30;;;;;;;4.12;62.44;99757.81;4962482;28;20041;-74
2024/02/12 04:56:45;;;;;;;35.03;11.60;;;;;;;4.13;62.43;99761.25;4939470;28;20112;-74
2024/02/12 04:59:12;;;;;;;33.20;12.30;;;;;;;4.07;62.53;99761.41;4943733;28;20032;-73
2024/02/12 05:01:39;;;;;;;34.60;11.98;;;;;;;4.02;62.47;99765.00;4943064;28;20068;-74
2024/02/12 05:04:04;;;;;;;30.38;10.57;;;;;;;3.99;62.47;99757.34;4950024;28;20605;-74
2024/02/12 05:06:36;;;;;;;23.98;11.38;;;;;;;3.99;62.49;99759.94;4960790;28;20331;-73
2024/02/12 05:09:05;;;;;;;33.35;10.95;;;;;;;3.90;63.22;99759.38;4943627;28;20042;-80
2024/02/12 05:11:34;;;;;;;27.20;10.40;;;;;;;4.19;62.25;99771.41;4943143;28;20046;-71
2024/02/12 05:14:02;;;;;;;28.63;11.52;;;;;;;4.07;62.24;99761.41;4953256;28;20373;-71
2024/02/12 05:16:32;;;;;;;20.88;10.35;;;;;;;4.10;62.35;99771.69;4947841;28;20670;-75
2024/02/12 05:24:35;;;;;;;27.30;10.98;;;;;;;4.22;61.94;99779.06;4919902;28;21627;-70
2024/02/12 05:27:01;;;;;;;27.77;10.10;;;;;;;4.22;61.97;99768.72;4936365;28;20132;-70
2024/02/12 05:29:29;;;;;;;28.27;11.18;;;;;;;4.16;62.06;99774.94;4940521;28;20076;-70
2024/02/12 05:31:55;;;;;;;36.90;10.82;;;;;;;3.84;63.53;99781.06;4951602;28;20128;-70
2024/02/12 05:34:21;;;;;;;30.90;11.23;;;;;;;4.18;62.35;99778.28;4962218;28;20298;-70
2024/02/12 05:36:55;;;;;;;21.35;10.20;;;;;;;4.20;62.41;99780.84;4957392;28;20451;-73
2024/02/12 05:39:21;;;;;;;24.48;11.27;;;;;;;4.32;61.78;99783.06;4946748;28;20057;-76
2024/02/12 05:41:52;;;;;;;26.08;10.85;;;;;;;4.19;61.99;99786.91;4942539;28;20606;-74
2024/02/12 05:44:18;;;;;;;29.13;11.47;;;;;;;3.72;63.86;99784.03;4967822;28;20036;-77
2024/02/12 05:46:46;;;;;;;24.40;10.43;;;;;;;4.01;63.30;99794.34;4960073;28;20038;-70
2024/02/12 05:49:14;;;;;;;26.98;11.02;;;;;;;4.15;62.50;99795.66;4953726;28;20234;-73
2024/02/12 05:51:39;;;;;;;29.45;10.88;;;;;;;4.05;63.05;99794.22;4955991;28;20045;-71
2024/02/12 05:54:05;;;;;;;28.85;9.88;;;;;;;4.15;62.32;99799.09;4935486;28;20022;-72
2024/02/12 05:56:36;;;;;;;31.35;11.15;;;;;;;4.13;62.29;99800.03;4960499;28;20034;-71
2024/02/12 05:59:05;;;;;;;24.33;11.15;;;;;;;4.07;62.61;99807.97;4953519;28;20190;-72
2024/02/12 06:01:31;;;;;;;28.63;10.80;;;;;;;4.24;62.12;99803.13;4959870;28;20031;-73
2024/02/12 06:03:57;;;;;;;26.25;10.00;;;;;;;4.31;61.95;99811.56;4951690;28;20038;-72
2024/02/12 06:06:24;;;;;;;28.90;11.93;;;;;;;4.28;61.98;99809.91;4933833;28;20100;-72
2024/02/12 06:08:57;;;;;;;36.10;11.27;;;;;;;4.21;62.25;99819.59;4936507;28;20050;-73
2024/02/12 06:11:22;;;;;;;29.40;10.85;;;;;;;4.37;61.89;99819.97;4940125;28;20038;-71
2024/02/12 06:13:55;;;;;;;30.83;11.43;;;;;;;4.20;62.29;99822.22;4920053;28;20238;-72
2024/02/12 06:16:28;;;;;;;20.02;9.70;;;;;;;4.24;62.20;99821.25;4887996;28;20039;-73
2024/02/12 06:19:05;;;;;;;24.90;11.38;;;;;;;3.95;63.00;99828.13;4914181;28;20285;-72
2024/02/12 06:21:45;;;;;;;25.10;11.50;;;;;;;4.18;62.16;99829.19;4929062;28;20347;-70
2024/02/12 06:24:13;;;;;;;31.75;11.30;;;;;;;4.28;61.81;99827.19;4928260;28;20184;-72
2024/02/12 06:26:42;;;;;;;26.38;10.77;;;;;;;4.17;62.42;99822.31;4930193;28;20046;-72
2024/02/12 06:29:08;;;;;;;28.17;11.25;;;;;;;4.07;62.54;99829.50;4953024;28;20419;-72
2024/02/12 06:31:45;;;;;;;25.50;11.05;;;;;;;4.15;62.29;99834.47;4944446;28;20045;-71
2024/02/12 06:34:11;;;;;;;29.85;10.70;;;;;;;4.10;62.09;99844.09;4935737;28;20030;-72
2024/02/12 06:36:39;;;;;;;23.95;10.80;;;;;;;4.30;62.06;99841.75;4935267;28;20566;-72
2024/02/12 06:39:05;;;;;;;27.90;12.38;;;;;;;4.19;62.26;99844.66;4950733;28;20305;-71
2024/02/12 06:41:32;;;;;;;35.20;12.25;;;;;;;3.96;62.53;99847.94;4936994;28;20523;-71
2024/02/12 06:43:58;;;;;;;27.48;10.95;;;;;;;4.30;62.04;99854.69;4955551;28;20053;-71
2024/02/12 06:46:26;;;;;;;27.77;10.73;;;;;;;4.36;61.76;99851.06;4907104;28;20447;-69
2024/02/12 06:48:56;;;;;;;29.08;11.35;;;;;;;4.24;61.95;99854.03;4918145;28;20045;-71
2024/02/12 06:51:23;;;;;;;30.15;12.25;;;;;;;4.30;61.99;99865.03;4937650;28;20228;-73
2024/02/12 06:53:50;;;;;;;28.38;11.25;;;;;;;4.21;62.32;99860.16;4945472;28;20590;-76
2024/02/12 06:56:16;;;;;;;28.73;11.68;;;;;;;4.29;61.85;99868.50;4949365;28;20228;-72
2024/02/12 06:58:43;;;;;;;23.73;11.63;;;;;;;4.20;61.88;99868.78;4923964;28;20096;-75
2024/02/12 07:01:12;;;;;;;33.22;12.45;;;;;;;4.12;62.34;99870.72;4934090;28;20210;-73
2024/02/12 07:03:41;;;;;;;24.15;11.70;;;;;;;4.28;61.67;99869.41;4959356;28;20040;-73
2024/02/12 07:06:12;;;;;;;30.75;11.50;;;;;;;4.20;62.04;99877.38;4921289;28;20445;-73
2024/02/12 07:08:44;;;;;;;;;;;;;;;4.32;61.99;99886.53;4954822;28;20034;-71
2024/02/12 07:11:15;;;;;;;27.80;11.63;;;;;;;4.38;61.75;99877.72;4951563;28;19924;-71
2024/02/12 07:13:43;;;;;;;29.80;11.97;;;;;;;4.31;62.03;99881.41;4955645;28;20385;-71
2024/02/12 07:16:18;;;;;;;33.65;10.38;;;;;;;4.40;61.68;99881.13;4929867;28;20290;-73
2024/02/12 07:18:49;;;;;;;37.88;11.82;;;;;;;4.17;62.16;99885.25;4954618;28;20030;-71
2024/02/12 07:21:18;;;;;;;31.38;12.50;;;;;;;4.42;61.73;99900.88;4952102;28;20480;-71
2024/02/12 07:23:43;;;;;;;28.17;11.45;;;;;;;4.35;61.68;99909.72;4939607;28;20100;-72
2024/02/12 07:26:09;;;;;;;25.80;10.65;;;;;;;4.22;62.14;99906.63;4931041;28;20043;-76
2024/02/12 07:28:35;;;;;;;27.73;10.50;;;;;;;4.32;62.31;99919.28;4942337;28;20117;-77
2024/02/12 07:31:03;;;;;;;28.50;12.15;;;;;;;3.59;63.68;99923.88;4941827;28;20298;-75
2024/02/12 07:33:32;;;;;;;24.98;12.38;;;;;;;4.20;62.52;99930.84;4941402;28;20479;-78
2024/02/12 07:36:01;;;;;;;35.42;12.88;;;;;;;4.10;63.10;99924.25;4937460;28;20050;-77
2024/02/12 07:38:28;;;;;;;22.63;10.73;;;;;;;4.37;62.41;99938.13;4910759;28;20124;-74
2024/02/12 07:40:56;;;;;;;28.30;12.35;;;;;;;4.31;62.25;99933.97;4950365;28;20041;-75
2024/02/12 07:43:24;;;;;;;28.33;11.48;;;;;;;4.21;62.39;99938.56;4933792;28;20030;-78
2024/02/12 07:45:53;;;;;;;25.67;11.57;;;;;;;4.19;62.57;99944.69;4932851;28;20327;-73
2024/02/12 07:48:28;;;;;;;27.05;11.35;;;;;;;4.18;62.84;99945.56;4926604;28;20152;-75
2024/02/12 07:50:55;;;;;;;28.70;11.60;;;;;;;3.89;63.44;99951.53;4905573;28;20060;-74
2024/02/12 07:53:28;;;;;;;;;;;;;;;4.21;62.81;99959.28;4907691;28;20588;-74
2024/02/12 07:56:06;;;;;;;28.10;11.95;;;;;;;4.52;62.18;99960.09;4913472;28;20057;-75
2024/02/12 07:58:39;;;;;;;30.13;12.85;;;;;;;4.60;61.56;99956.41;4921414;28;20349;-78
2024/02/12 08:01:07;;;;;;;30.33;12.45;;;;;;;4.25;62.51;99970.34;4953481;28;20436;-71
2024/02/12 08:03:38;;;;;;;30.25;12.52;;;;;;;4.41;62.32;99971.63;4957995;28;20038;-76
2024/02/12 08:06:03;;;;;;;28.02;11.57;;;;;;;4.61;62.08;99965.03;4938195;28;20046;-72
2024/02/12 08:08:30;;;;;;;27.50;12.00;;;;;;;4.67;61.84;99964.84;4921976;28;20328;-72
2024/02/12 08:10:55;;;;;;;29.15;12.52;;;;;;;4.61;61.99;99971.06;4948235;28;20374;-72
2024/02/12 08:13:21;;;;;;;24.60;10.70;;;;;;;4.03;63.25;99980.47;4933264;28;20117;-74
2024/02/12 08:15:48;;;;;;;28.33;11.75;;;;;;;4.51;62.65;99976.53;4932681;28;20055;-74
2024/02/12 08:18:13;;;;;;;30.13;14.00;;;;;;;4.37;62.72;99990.72;4924121;28;20041;-74
2024/02/12 08:20:39;;;;;;;24.05;11.70;;;;;;;4.64;62.48;99978.72;4959837;28;20112;-74
2024/02/12 08:23:07;;;;;;;28.42;12.40;;;;;;;4.66;62.21;99983.88;4941902;28;20048;-75
2024/02/12 08:25:33;;;;;;;34.38;13.82;;;;;;;4.60;62.13;99984.88;4930750;28;20030;-75
2024/02/12 08:28:01;;;;;;;31.35;12.95;;;;;;;4.83;61.91;99989.38;4929253;28;20501;-75
2024/02/12 08:30:26;;;;;;;37.97;13.75;;;;;;;4.38;62.92;99996.75;4937744;28;20229;-70
2024/02/12 08:32:55;;;;;;;38.58;13.75;;;;;;;4.72;61.97;99996.63;4953437;28;20045;-72
2024/02/12 08:35:26;;;;;;;39.13;13.50;;;;;;;4.96;61.44;99999.38;4930370;28;20038;-76
2024/02/12 08:37:51;;;;;;;23.67;12.02;;;;;;;4.69;61.95;99999.28;4923375;28;20061;-71
2024/02/12 08:40:17;;;;;;;27.80;12.70;;;;;;;4.95;61.48;99997.72;4949966;28;20131;-75
2024/02/12 08:42:45;;;;;;;34.05;13.48;;;;;;;5.14;60.70;99998.81;4913189;28;20042;-73
2024/02/12 08:45:14;;;;;;;34.95;13.95;;;;;;;5.00;60.90;100001.84;4928537;28;20030;-74
2024/02/12 08:47:40;;;;;;;32.20;12.68;;;;;;;4.84;61.47;100011.78;4930893;28;20255;-69
2024/02/12 08:50:07;;;;;;;30.15;12.55;;;;;;;5.01;61.29;100011.31;4958629;28;20043;-71
2024/02/12 08:52:35;;;;;;;28.55;12.68;;;;;;;4.76;61.58;100018.91;4951175;28;22209;-76
2024/02/12 08:55:06;;;;;;;33.17;13.63;;;;;;;4.81;61.42;100017.06;4948251;28;20027;-71
2024/02/12 08:57:34;;;;;;;26.93;12.50;;;;;;;5.07;61.20;100014.59;4929243;28;20750;-70
2024/02/12 09:00:00;;;;;;;27.88;12.23;;;;;;;5.09;61.04;100021.44;4950939;28;20397;-71
2024/02/12 09:02:33;;;;;;;31.17;13.10;;;;;;;4.93;61.37;100015.03;4922988;28;20578;-71
2024/02/12 09:05:01;;;;;;;35.70;13.77;;;;;;;5.03;61.55;100026.78;4950399;28;20436;-76
2024/02/12 09:07:27;;;;;;;31.80;12.57;;;;;;;4.72;62.03;100039.78;4894608;28;20221;-71
2024/02/12 09:09:55;;;;;;;30.88;12.25;;;;;;;4.96;61.72;100035.66;4942925;28;20030;-72
2024/02/12 09:12:27;;;;;;;32.85;11.88;;;;;;;5.09;60.89;100043.91;4950871;28;20042;-77
2024/02/12 09:15:00;;;;;;;27.65;12.02;;;;;;;5.08;61.22;100044.78;4940369;28;20492;-71
2024/02/12 09:17:28;;;;;;;35.22;13.18;;;;;;;5.31;60.50;100046.69;4919876;28;20113;-71
2024/02/12 09:19:56;;;;;;;26.40;11.60;;;;;;;4.94;61.12;100052.97;4923752;28;20045;-72
2024/02/12 09:22:21;;;;;;;29.58;11.43;;;;;;;5.23;60.62;100047.78;4930898;28;20062;-72
2024/02/12 09:24:47;;;;;;;33.00;12.82;;;;;;;5.03;60.61;100055.28;4945667;28;20038;-72
2024/02/12 09:27:13;;;;;;;29.90;12.73;;;;;;;5.07;60.81;100051.72;4952984;28;20115;-72
2024/02/12 09:29:42;;;;;;;31.77;12.25;;;;;;;5.10;60.72;100063.72;4899034;28;26686;-72
2024/02/12 09:32:11;;;;;;;38.15;12.18;;;;;;;4.95;60.48;100065.03;4958692;28;20161;-73
2024/02/12 09:34:37;;;;;;;32.60;13.23;;;;;;;4.57;61.27;100077.31;4920923;28;22764;-72
2024/02/12 09:37:04;;;;;;;29.27;12.18;;;;;;;4.94;60.42;100079.72;4906806;28;20915;-72
2024/02/12 09:39:35;;;;;;;26.98;11.35;;;;;;;4.91;61.12;100079.81;4912091;28;20034;-71
2024/02/12 09:42:03;;;;;;;24.98;9.43;;;;;;;4.87;61.08;100075.56;4863952;28;20137;-71
2024/02/12 09:44:31;;;;;;;24.60;10.55;;;;;;;4.91;60.89;100081.56;4899525;28;20952;-72
2024/02/12 09:47:04;;;;;;;23.88;10.90;;;;;;;5.13;60.20;100085.22;4904602;28;20201;-72
2024/02/12 09:49:31;;;;;;;26.08;11.45;;;;;;;5.23;59.91;100099.59;4930946;28;20045;-72
2024/02/12 09:52:00;;;;;;;25.15;10.15;;;;;;;4.75;60.61;100100.09;4949350;28;20098;-71
2024/02/12 09:54:26;;;;;;;23.73;10.25;;;;;;;5.10;60.75;100102.56;4948919;28;20041;-71
2024/02/12 09:56:52;;;;;;;24.33;10.48;;;;;;;5.59;59.43;100107.13;4921539;28;20046;-71
2024/02/12 09:59:25;;;;;;;28.55;10.70;;;;;;;5.24;59.58;100103.88;4931703;28;20105;-71
2024/02/12 10:01:52;;;;;;;21.30;9.75;;;;;;;5.44;58.94;100105.00;4953058;28;20523;-72
2024/02/12 10:04:20;;;;;;;18.88;9.43;;;;;;;5.98;58.15;100106.72;4955477;28;20216;-71
2024/02/12 10:06:54;;;;;;;19.20;9.25;;;;;;;5.74;58.10;100117.91;4932176;28;20042;-71
2024/02/12 10:09:21;;;;;;;22.80;9.95;;;;;;;6.07;57.16;100116.78;4906926;28;20095;-72
2024/02/12 10:11:49;;;;;;;24.98;12.05;;;;;;;5.64;57.57;100123.38;4874296;28;20333;-70
2024/02/12 10:14:40;;;;;;;26.83;10.00;;;;;;;5.23;58.50;100125.50;4895196;28;20026;-69
2024/02/12 10:17:08;;;;;;;19.80;9.13;;;;;;;5.75;58.11;100127.34;4912514;28;20921;-71
2024/02/12 10:19:37;;;;;;;29.85;9.88;;;;;;;5.57;58.18;100121.88;4899854;28;20216;-71
2024/02/12 10:22:06;;;;;;;18.50;9.38;;;;;;;5.28;58.99;100134.84;4867473;28;20252;-71
2024/02/12 10:24:32;;;;;;;27.08;9.73;;;;;;;5.73;58.37;100136.97;4914042;28;20435;-71
2024/02/12 10:26:59;;;;;;;15.95;9.23;;;;;;;5.70;57.96;100132.69;4905226;28;20254;-72
2024/02/12 10:29:25;;;;;;;21.10;8.70;;;;;;;6.18;56.82;100136.34;4911202;28;20416;-71
2024/02/12 10:31:50;;;;;;;18.38;8.77;;;;;;;6.19;57.02;100138.03;4937987;28;20105;-71
2024/02/12 10:34:23;;;;;;;18.17;8.57;;;;;;;6.63;56.46;100143.50;4936665;28;20041;-71
2024/02/12 10:36:54;;;;;;;31.13;11.00;;;;;;;6.64;56.14;100145.19;4936081;28;20050;-71
2024/02/12 10:39:24;;;;;;;26.75;8.80;;;;;;;6.32;56.59;100152.34;4928094;28;20416;-71
2024/02/12 10:41:59;;;;;;;22.33;7.97;;;;;;;6.42;56.31;100153.72;4926237;28;20043;-71
2024/02/12 10:44:24;;;;;;;24.63;10.05;;;;;;;6.06;57.27;100151.44;4926297;28;20031;-71
2024/02/12 10:46:51;;;;;;;25.20;9.40;;;;;;;5.55;58.32;100159.97;4950717;28;20389;-71
2024/02/12 10:49:23;;;;;;;19.00;8.95;;;;;;;5.71;58.07;100154.31;4951808;28;20851;-71
2024/02/12 10:51:54;;;;;;;15.10;8.98;;;;;;;5.93;57.87;100150.13;4911878;28;20539;-71
2024/02/12 10:54:22;;;;;;;19.25;8.80;;;;;;;5.65;57.99;100158.75;4950820;28;20123;-71
2024/02/12 10:56:54;;;;;;;22.85;8.65;;;;;;;6.48;56.73;100157.84;4934752;28;20046;-70
2024/02/12 10:59:20;;;;;;;18.50;8.95;;;;;;;6.22;56.97;100161.31;4934702;28;20038;-71
2024/02/12 11:01:54;;;;;;;20.17;9.20;;;;;;;6.33;56.82;100159.25;4929566;28;20050;-72
2024/02/12 11:04:26;;;;;;;21.20;8.63;;;;;;;6.63;56.60;100169.47;4936642;28;20041;-71
2024/02/12 11:06:52;;;;;;;17.45;8.52;;;;;;;7.01;55.67;100170.69;4917725;28;20339;-71
2024/02/12 11:09:31;;;;;;;21.63;9.23;;;;;;;7.73;54.26;100168.03;4938221;28;20089;-71
2024/02/12 11:11:56;;;;;;;14.13;7.38;;;;;;;7.42;54.04;100172.66;4933887;28;20045;-71
2024/02/12 11:14:32;;;;;;;16.83;7.47;;;;;;;6.47;55.13;100174.34;4931112;28;20026;-70
2024/02/12 11:16:58;;;;;;;13.68;6.93;;;;;;;6.69;55.17;100177.06;4930540;28;20563;-71
2024/02/12 11:19:28;;;;;;;20.88;8.50;;;;;;;7.07;53.99;100178.28;4934616;28;20034;-71
2024/02/12 11:21:59;;;;;;;17.10;6.63;;;;;;;6.98;54.60;100181.22;4914620;28;20035;-71
2024/02/12 11:24:24;;;;;;;14.90;5.30;;;;;;;6.86;53.79;100177.31;4951528;28;20039;-71
2024/02/12 11:26:51;;;;;;;12.70;6.80;;;;;;;6.48;54.09;100178.63;4929232;28;20396;-71
2024/02/12 11:29:17;;;;;;;19.35;6.53;;;;;;;6.73;53.90;100183.84;4938843;28;20116;-71
2024/02/12 11:31:44;;;;;;;16.25;6.93;;;;;;;6.90;53.97;100189.25;4916672;28;20101;-72
2024/02/12 11:34:21;;;;;;;16.08;5.80;;;;;;;6.93;53.89;100190.91;4922544;28;20058;-71
2024/02/12 11:37:03;;;;;;;17.67;5.88;;;;;;;6.78;53.85;100194.91;4913024;28;20246;-70
2024/02/12 11:39:30;;;;;;;14.80;5.03;;;;;;;6.37;54.57;100201.50;4911577;28;20457;-71
2024/02/12 11:41:59;;;;;;;13.23;4.68;;;;;;;6.86;53.74;100205.88;4869064;28;20517;-71
2024/02/12 11:44:33;;;;;;;9.30;3.90;;;;;;;6.12;55.60;100206.59;4896838;28;20243;-71
2024/02/12 11:47:09;;;;;;;7.78;4.15;;;;;;;6.39;54.99;100210.91;4878665;28;20253;-70